Latest Weather Observations for Melbourne (Olympic Park)

IDV60801

Issued at 1:02 pm EST Monday 6 July 2015 (issued every 30 minutes, with the page automatically refreshed every 10 minutes)

About weather observations | Map of weather stations | Latest weather observations for VIC | Other Formats
Station Details ID: 086338 Name: MELBOURNE (OLYMPIC PARK) Lat: -37.83 Lon: 144.98 Height: 7.53 m
Data from the previous 72 hours. | See also: Recent months at Melbourne (Olympic Park)
Date/Time
EST
Temp
°C
App
Temp
°C
Dew
Point
Rel
Hum
%
Delta-T
°C
Wind Press
QNH
hPa
Press
MSL
hPa
Rain
since 9 am
mm
Dir
 
Spd
km/h
Gust
km/h
Spd
kts
Gust
kts
06/01:00pm 10.7 5.3 4.4 65 2.8 N 22 37 12 20 1015.8 1015.8 0.8
06/12:30pm 10.3 4.5 4.2 66 2.7 N 24 41 13 22 1016.0 1016.0 0.8
06/12:00pm 10.1 5.1 4.7 69 2.4 N 20 30 11 16 1016.3 1016.3 0.8
06/11:30am 9.7 4.8 5.3 74 2.0 N 20 33 11 18 1016.4 1016.4 0.8
06/11:00am 9.1 4.4 5.1 76 1.8 N 19 26 10 14 1016.7 1016.7 0.8
06/10:30am 8.8 4.0 5.5 80 1.5 N 20 28 11 15 1016.9 1016.9 0.8
06/10:00am 8.5 4.7 6.0 84 1.1 N 15 26 8 14 1016.8 1016.8 0.8
06/09:30am 7.7 3.1 5.7 87 0.9 N 19 26 10 14 1016.9 1016.9 0.8
06/09:00am 7.5 2.8 5.3 86 1.0 N 19 26 10 14 1017.0 1017.0 1.6
06/08:30am 7.7 2.9 4.7 81 1.3 N 19 33 10 18 1016.9 1016.9 0.6
06/08:00am 8.4 3.5 4.0 74 1.9 N 19 28 10 15 1016.6 1016.6 0.2
06/07:30am 8.6 4.4 3.6 71 2.2 N 15 24 8 13 1016.5 1016.5 0.2
06/07:00am 8.7 4.1 3.5 70 2.2 N 17 26 9 14 1016.5 1016.5 0.0
06/06:30am 8.9 4.5 2.9 66 2.6 N 15 26 8 14 1016.4 1016.4 0.0
06/06:00am 9.1 4.4 3.1 66 2.6 N 17 30 9 16 1016.3 1016.3 0.0
06/05:30am 9.1 4.4 2.9 65 2.6 N 17 28 9 15 1016.3 1016.3 0.0
06/05:00am 9.1 4.4 2.9 65 2.6 N 17 24 9 13 1016.3 1016.3 0.0
06/04:30am 9.1 4.4 3.1 66 2.6 N 17 26 9 14 1016.3 1016.3 0.0
06/04:00am 9.3 4.0 3.1 65 2.7 N 20 28 11 15 1016.4 1016.4 0.0
06/03:30am 9.3 3.6 3.1 65 2.7 N 22 32 12 17 1016.5 1016.5 0.0
06/03:00am 9.3 3.7 3.3 66 2.6 N 22 37 12 20 1016.7 1016.7 0.0
06/02:30am 9.2 3.9 3.2 66 2.6 N 20 35 11 19 1016.9 1016.9 0.0
06/02:00am 9.3 4.0 3.1 65 2.7 N 20 32 11 17 1017.1 1017.1 0.0
06/01:30am 9.4 4.1 3.2 65 2.7 N 20 28 11 15 1017.2 1017.2 0.0
06/01:00am 9.5 4.4 3.3 65 2.7 N 19 28 10 15 1017.4 1017.4 0.0
06/12:30am 9.6 4.3 3.1 64 2.8 N 20 30 11 16 1017.6 1017.6 0.0
06/12:00am 9.7 4.4 3.2 64 2.8 N 20 33 11 18 1017.7 1017.7 0.0
 
Date/Time
EST
Temp
°C
App
Temp
°C
Dew
Point
Rel
Hum
%
Delta-T
°C
Wind Press
QNH
hPa
Press
MSL
hPa
Rain
since 9 am
mm
Dir
 
Spd
km/h
Gust
km/h
Spd
kts
Gust
kts
05/11:30pm 9.8 4.5 3.1 63 2.9 N 20 32 11 17 1017.8 1017.8 0.0
05/11:00pm 9.7 4.4 3.2 64 2.8 N 20 28 11 15 1017.8 1017.8 0.0
05/10:30pm 10.0 5.4 3.5 64 2.8 N 17 28 9 15 1017.8 1017.8 0.0
05/10:00pm 10.1 5.8 3.4 63 2.9 N 15 30 8 16 1018.0 1018.0 0.0
05/09:30pm 10.3 5.2 3.3 62 3.0 N 19 30 10 16 1018.1 1018.1 0.0
05/09:00pm 10.7 6.0 3.3 60 3.2 N 17 24 9 13 1018.2 1018.2 0.0
05/08:30pm 10.9 6.3 3.5 60 3.3 N 17 30 9 16 1018.2 1018.2 0.0
05/08:00pm 11.1 6.4 3.4 59 3.4 N 17 26 9 14 1018.2 1018.2 0.0
05/07:30pm 11.3 7.4 3.6 59 3.4 N 13 22 7 12 1018.2 1018.2 0.0
05/07:00pm 11.3 7.1 3.8 60 3.3 N 15 22 8 12 1018.0 1018.0 0.0
05/06:30pm 11.4 7.6 3.7 59 3.4 NNE 13 20 7 11 1018.0 1018.0 0.0
05/06:00pm 12.2 7.2 3.7 56 3.8 N 19 30 10 16 1017.9 1017.9 0.0
05/05:30pm 12.2 8.1 4.2 58 3.6 N 15 20 8 11 1017.6 1017.6 0.0
05/05:00pm 12.8 7.9 4.0 55 4.0 N 19 30 10 16 1017.5 1017.5 0.0
05/04:30pm 13.1 8.6 4.3 55 4.0 N 17 28 9 15 1017.6 1017.6 0.0
05/04:00pm 13.5 9.0 4.4 54 4.2 N 17 24 9 13 1017.6 1017.6 0.0
05/03:30pm 13.2 8.7 4.4 55 4.0 NNE 17 24 9 13 1017.6 1017.6 0.0
05/03:00pm 13.6 9.2 4.5 54 4.2 N 17 28 9 15 1017.7 1017.7 0.0
05/02:30pm 13.6 8.5 4.2 53 4.3 N 20 35 11 19 1017.9 1017.9 0.0
05/02:00pm 14.7 9.9 4.4 50 4.8 N 19 30 10 16 1018.0 1018.0 0.0
05/01:30pm 14.6 9.7 4.9 52 4.5 N 20 30 11 16 1018.0 1018.0 0.0
05/01:00pm 13.8 8.7 4.1 52 4.4 N 20 30 11 16 1018.3 1018.3 0.0
05/12:30pm 14.3 9.5 4.6 52 4.5 N 19 32 10 17 1018.6 1018.6 0.0
05/12:00pm 13.3 8.2 4.2 54 4.1 N 20 32 11 17 1019.0 1019.0 0.0
05/11:30am 12.9 8.4 4.1 55 4.0 N 17 28 9 15 1019.5 1019.5 0.0
05/11:00am 12.1 7.6 4.3 59 3.5 N 17 24 9 13 1020.0 1020.0 0.0
05/10:30am 11.2 6.7 4.2 62 3.1 N 17 26 9 14 1020.3 1020.3 0.0
05/10:00am 10.4 5.8 3.9 64 2.9 N 17 24 9 13 1020.5 1020.5 0.0
05/09:30am 9.5 4.9 3.5 66 2.6 N 17 26 9 14 1020.7 1020.7 0.0
05/09:00am 9.2 4.1 3.2 66 2.6 N 19 26 10 14 1020.6 1020.6 2.0
05/08:30am 9.1 4.8 3.5 68 2.4 N 15 22 8 12 1020.6 1020.6 2.0
05/08:00am 9.2 6.1 3.4 67 2.5 N 9 15 5 8 1020.6 1020.6 2.0
05/07:30am 9.6 6.1 3.6 66 2.6 NNE 11 17 6 9 1020.7 1020.7 2.0
05/07:00am 9.7 5.4 3.4 65 2.7 N 15 22 8 12 1020.4 1020.4 2.0
05/06:30am 9.8 5.5 3.5 65 2.7 N 15 20 8 11 1020.2 1020.2 2.0
05/06:00am 9.8 5.6 3.8 66 2.6 N 15 24 8 13 1020.1 1020.1 2.0
05/05:30am 9.8 5.2 3.8 66 2.6 N 17 28 9 15 1019.8 1019.8 2.0
05/05:00am 9.8 4.8 3.8 66 2.6 N 19 28 10 15 1019.6 1019.6 2.0
05/04:30am 10.0 5.4 3.7 65 2.8 N 17 26 9 14 1019.8 1019.8 2.0
05/04:00am 10.0 5.1 4.0 66 2.6 N 19 24 10 13 1020.1 1020.1 2.0
05/03:30am 9.9 5.4 4.1 67 2.6 N 17 26 9 14 1020.5 1020.5 2.0
05/03:00am 9.8 5.3 4.4 69 2.4 N 17 26 9 14 1020.7 1020.7 2.0
05/02:30am 9.6 5.6 4.8 72 2.1 N 15 22 8 12 1020.9 1020.9 2.0
05/02:00am 9.7 5.7 4.9 72 2.1 N 15 20 8 11 1020.9 1020.9 2.0
05/01:30am 10.2 5.7 4.4 67 2.6 N 17 28 9 15 1021.0 1021.0 2.0
05/01:00am 10.5 6.4 4.4 66 2.7 N 15 20 8 11 1021.1 1021.1 2.0
05/12:30am 10.5 6.4 4.6 67 2.6 N 15 22 8 12 1021.1 1021.1 2.0
05/12:00am 10.4 6.8 4.8 68 2.5 N 13 19 7 10 1021.3 1021.3 2.0
 
Date/Time
EST
Temp
°C
App
Temp
°C
Dew
Point
Rel
Hum
%
Delta-T
°C
Wind Press
QNH
hPa
Press
MSL
hPa
Rain
since 9 am
mm
Dir
 
Spd
km/h
Gust
km/h
Spd
kts
Gust
kts
04/11:30pm 10.2 7.0 5.2 71 2.3 N 11 17 6 9 1021.5 1021.5 2.0
04/11:00pm 9.9 6.5 5.7 75 1.9 N 13 20 7 11 1021.6 1021.6 2.0
04/10:30pm 10.4 6.5 5.2 70 2.4 N 15 22 8 12 1021.6 1021.6 2.0
04/10:00pm 10.2 6.6 5.2 71 2.3 N 13 20 7 11 1021.7 1021.7 2.0
04/09:30pm 10.1 6.6 5.5 73 2.1 N 13 17 7 9 1021.8 1021.8 2.0
04/09:00pm 10.2 6.8 5.8 74 2.0 N 13 19 7 10 1021.9 1021.9 2.0
04/08:30pm 10.2 7.1 5.6 73 2.1 NNE 11 19 6 10 1022.1 1022.1 2.0
04/08:00pm 9.8 6.9 6.3 79 1.6 NNE 11 17 6 9 1022.1 1022.1 2.0
04/07:30pm 9.3 6.4 6.4 82 1.3 NNE 11 13 6 7 1022.0 1022.0 2.0
04/07:00pm 9.3 6.8 6.4 82 1.3 NNE 9 15 5 8 1022.0 1022.0 2.0
04/06:30pm 9.3 6.8 6.6 83 1.3 NNE 9 13 5 7 1022.0 1022.0 2.0
04/06:00pm 9.5 6.2 6.4 81 1.4 NNE 13 19 7 10 1021.7 1021.7 2.0
04/05:30pm 9.4 6.5 6.3 81 1.4 NNE 11 17 6 9 1021.6 1021.6 2.0
04/05:00pm 9.4 6.5 6.3 81 1.4 NNE 11 15 6 8 1021.6 1021.6 2.0
04/04:30pm 9.4 6.0 6.1 80 1.5 NNE 13 19 7 10 1021.7 1021.7 2.0
04/04:00pm 9.6 6.0 5.2 74 2.0 N 13 19 7 10 1021.8 1021.8 2.0
04/03:30pm 9.2 5.4 5.6 78 1.6 NNE 15 20 8 11 1021.7 1021.7 2.0
04/03:00pm 9.2 5.8 5.8 79 1.5 NNE 13 17 7 9 1021.6 1021.6 2.0
04/02:30pm 9.2 5.7 5.6 78 1.6 NNE 13 19 7 10 1021.5 1021.5 2.0
04/02:00pm 9.0 5.5 5.6 79 1.5 NNE 13 19 7 10 1021.6 1021.6 2.0
04/01:30pm 8.7 5.6 5.6 81 1.4 NNE 11 19 6 10 1021.7 1021.7 2.0
04/01:00pm 8.4 5.4 5.9 84 1.1 NNE 11 17 6 9 1021.9 1021.9 2.0
04/12:30pm 8.2 4.8 6.0 86 1.0 N 13 19 7 10 1022.3 1022.3 2.0
04/12:00pm 8.5 5.1 6.0 84 1.1 NNE 13 20 7 11 1022.6 1022.6 1.6
04/11:30am 8.3 4.5 5.8 84 1.1 NNE 15 20 8 11 1022.8 1022.8 1.4
04/11:00am 8.6 5.2 5.9 83 1.2 NNE 13 20 7 11 1022.9 1022.9 1.0
04/10:30am 8.4 5.2 5.3 81 1.4 NNE 11 17 6 9 1023.0 1023.0 0.8
04/10:00am 8.7 5.4 4.5 75 1.8 N 11 20 6 11 1023.0 1023.0 0.4
04/09:30am 8.9 4.9 2.9 66 2.6 N 13 20 7 11 1022.8 1022.8 0.2
04/09:00am 9.4 4.8 1.6 58 3.2 N 15 22 8 12 1022.6 1022.6 0.0
04/08:30am 9.3 5.1 1.7 59 3.2 NNE 13 20 7 11 1022.6 1022.6 0.0
04/08:00am 9.3 5.5 1.5 58 3.2 NNE 11 15 6 8 1022.6 1022.6 0.0
04/07:30am 9.3 5.0 1.2 57 3.3 N 13 22 7 12 1022.3 1022.3 0.0
04/07:00am 9.4 5.1 1.1 56 3.4 N 13 20 7 11 1022.3 1022.3 0.0
04/06:30am 9.4 5.1 1.3 57 3.3 N 13 20 7 11 1022.3 1022.3 0.0
04/06:00am 9.2 5.0 1.6 59 3.1 N 13 19 7 10 1022.2 1022.2 0.0
04/05:30am 9.1 4.9 1.5 59 3.1 N 13 17 7 9 1022.3 1022.3 0.0
04/05:00am 9.0 4.3 1.2 58 3.2 N 15 20 8 11 1022.1 1022.1 0.0
04/04:30am 8.9 4.6 1.3 59 3.1 N 13 20 7 11 1022.2 1022.2 0.0
04/04:00am 9.2 5.0 1.4 58 3.2 N 13 20 7 11 1022.3 1022.3 0.0
04/03:30am 9.2 4.5 1.1 57 3.3 N 15 24 8 13 1022.5 1022.5 0.0
04/03:00am 9.0 5.1 1.4 59 3.1 N 11 15 6 8 1023.0 1023.0 0.0
04/02:30am 9.3 5.8 1.2 57 3.3 N 9 13 5 7 1023.3 1023.3 0.0
04/02:00am 9.3 5.0 1.0 56 3.4 NNW 13 20 7 11 1023.4 1023.4 0.0
04/01:30am 9.1 4.8 1.0 57 3.3 NNW 13 20 7 11 1023.5 1023.5 0.0
04/01:00am 9.0 4.7 1.0 57 3.2 NNW 13 19 7 10 1023.7 1023.7 0.0
04/12:30am 8.8 4.1 0.8 57 3.2 NNW 15 20 8 11 1024.0 1024.0 0.0
04/12:00am 8.6 4.3 1.1 59 3.0 N 13 19 7 10 1024.5 1024.5 0.0
 
Date/Time
EST
Temp
°C
App
Temp
°C
Dew
Point
Rel
Hum
%
Delta-T
°C
Wind Press
QNH
hPa
Press
MSL
hPa
Rain
since 9 am
mm
Dir
 
Spd
km/h
Gust
km/h
Spd
kts
Gust
kts
03/11:30pm 8.9 4.6 0.9 57 3.2 N 13 20 7 11 1024.4 1024.4 0.0
03/11:00pm 9.1 4.8 0.8 56 3.3 N 13 17 7 9 1024.5 1024.5 0.0
03/10:30pm 9.0 4.7 0.7 56 3.4 NNW 13 20 7 11 1024.7 1024.7 0.0
03/10:00pm 9.0 4.7 0.7 56 3.3 N 13 17 7 9 1025.0 1025.0 0.0
03/09:30pm 9.0 5.1 1.0 57 3.3 NNW 11 20 6 11 1025.4 1025.4 0.0
03/09:00pm 9.7 5.3 0.6 53 3.7 NW 13 20 7 11 1025.6 1025.6 0.0
03/08:30pm 10.0 6.4 0.3 51 3.9 NW 9 13 5 7 1025.7 1025.7 0.0
03/08:00pm 9.8 7.5 0.7 53 3.7 NW 2 9 1 5 1025.7 1025.7 0.0
03/07:30pm 9.8 7.2 0.7 53 3.7 NW 4 7 2 4 1025.8 1025.8 0.0
03/07:00pm 9.6 6.5 0.2 52 3.8 NW 6 17 3 9 1025.8 1025.8 0.0
03/06:30pm 9.6 6.9 0.0 51 3.8 WNW 4 9 2 5 1025.8 1025.8 0.0
03/06:00pm 9.7 6.4 -0.2 50 3.9 W 7 13 4 7 1025.8 1025.8 0.0
03/05:30pm 9.7 6.4 -0.2 50 3.9 W 7 11 4 6 1025.7 1025.7 0.0
03/05:00pm 10.2 6.5 0.0 49 4.1 NW 9 15 5 8 1025.7 1025.7 0.0
03/04:30pm 10.4 7.1 0.4 50 4.1 WSW 7 15 4 8 1026.1 1026.1 0.0
03/04:00pm 10.8 7.1 0.2 48 4.3 WSW 9 17 5 9 1026.1 1026.1 0.0
03/03:30pm 10.9 7.6 0.0 47 4.4 WNW 7 15 4 8 1026.0 1026.0 0.0
03/03:00pm 11.1 7.9 0.5 48 4.3 NW 7 11 4 6 1026.1 1026.1 0.0
03/02:30pm 10.9 7.6 0.3 48 4.3 WSW 7 17 4 9 1026.1 1026.1 0.0
03/02:00pm 11.1 7.9 0.8 49 4.2 WNW 7 15 4 8 1026.3 1026.3 0.0
03/01:30pm 11.0 6.2 0.1 47 4.4 NNW 15 20 8 11 1026.6 1026.6 0.0

Other Formats:

Comma delimited format used in spreadsheet applications
http://www.bom.gov.au/fwo/IDV60801/IDV60801.95936.axf

JavaScript Object Notation format (JSON) in row-major order
http://www.bom.gov.au/fwo/IDV60801/IDV60801.95936.json